Centre Hospitalier Heliport

FR-0048 · Ille-et-Vilaine, 布列塔尼半岛, 法国

罗盘
风向 的 风向 200° 直升机
风: 3 kt, 1 beaufort
0 ft 1.000 2.000 3.000 4.000 5.000
CAVOK
METAR LFRD 142330Z AUTO 20003KT CAVOK 15/11 Q1011

METAR Centre Hospitalier Heliport - FR-0048

Centre Hospitalier Heliport是,法国中的直升机场。 该机场位于纬度48,63889和经度-2,00833。 这个机场没有ICAO代码,我们使用FR-0048作为参考。 机场在Brest FIR中。

该航空气象观测是针对Dinard-Pleurtuit-Saint-Malo Airport在2024年7月15日 01:30, 当地时间进行的。

机场观察

风向为200°,速度为3 kt。

天气为CAVOK。这意味着在5.000 ft或MSA(最低安全高度)以下(以较高者为准)以下没有云。这也意味着没有观测到积雨云或高耸的积云,可见度为10 km 或者更多或更高。此外,不会有雾,降雨或其他重要天气。

温度和风寒是15 °C。 露点为11 °C,相对湿度为77%。 海平面上的气压为1011 hPa (QNH)。

白天

今天,太阳从06:21升起,在22:06降落。 这适用于Centre Hospitalier Heliport,世界夏令时可能有所不同。 当地时间与世界标准时间之间的时差为+2 小时。 夏令时目前正在进行中。

公司介绍

我们没有关于这个机场的公司信息。

体会

到Vliegles.nl去找飞行课程,跳伞和其他飞行体验。 浏览页面,了解Centre Hospitalier Heliport附近所有可用的活动。 你也可以使用搜索功能来寻找你所在地附近的特定飞行课程、跳伞或其他飞行体验。

温度 & 天气

温度 15 °C
露点 11 °C
相对湿度 77%
Kp-index 1 (0-9)

白天

日出
06:21 (4:26)
中午
14:14
日落
22:06

小工具

你想在你的网站上有一个关于Centre Hospitalier Heliport的当前航空天气(METAR)的小部件吗?

显示HTML代码
报告变更